sensor_id;sensor_type;location;lat;lon;timestamp;P1;durP1;ratioP1;P2;durP2;ratioP2
28958;SDS011;16066;0.000;0.000;2023-09-12T05:30:46;9.33;;;5.77;;
28958;SDS011;16066;0.000;0.000;2023-09-12T05:33:11;8.10;;;5.20;;
28958;SDS011;16066;0.000;0.000;2023-09-12T05:35:38;6.37;;;5.00;;
28958;SDS011;16066;0.000;0.000;2023-09-12T05:38:03;8.03;;;4.90;;
28958;SDS011;16066;0.000;0.000;2023-09-12T05:40:29;6.57;;;5.33;;
28958;SDS011;16066;0.000;0.000;2023-09-12T05:42:54;6.73;;;5.03;;
28958;SDS011;16066;0.000;0.000;2023-09-12T05:45:20;8.80;;;5.30;;
28958;SDS011;16066;0.000;0.000;2023-09-12T05:47:45;11.60;;;5.50;;
28958;SDS011;16066;0.000;0.000;2023-09-12T05:50:11;9.87;;;5.33;;
28958;SDS011;16066;0.000;0.000;2023-09-12T05:52:37;7.83;;;5.20;;
28958;SDS011;16066;0.000;0.000;2023-09-12T05:55:02;12.37;;;5.40;;
28958;SDS011;16066;0.000;0.000;2023-09-12T05:57:29;8.23;;;5.40;;
28958;SDS011;16066;0.000;0.000;2023-09-12T05:59:58;7.43;;;5.93;;
28958;SDS011;16066;0.000;0.000;2023-09-12T06:02:24;8.93;;;5.00;;
28958;SDS011;16066;0.000;0.000;2023-09-12T06:04:50;6.63;;;4.43;;
28958;SDS011;16066;0.000;0.000;2023-09-12T06:07:16;16.00;;;5.20;;
28958;SDS011;16066;0.000;0.000;2023-09-12T06:09:42;7.60;;;6.33;;
28958;SDS011;16066;0.000;0.000;2023-09-12T06:12:07;7.80;;;5.50;;
28958;SDS011;16066;0.000;0.000;2023-09-12T06:14:33;8.87;;;5.93;;
28958;SDS011;16066;0.000;0.000;2023-09-12T06:16:58;6.43;;;4.70;;
28958;SDS011;16066;0.000;0.000;2023-09-12T06:19:24;8.03;;;5.73;;
28958;SDS011;16066;0.000;0.000;2023-09-12T06:21:50;11.10;;;5.27;;
28958;SDS011;16066;0.000;0.000;2023-09-12T06:24:16;10.30;;;5.70;;
28958;SDS011;16066;0.000;0.000;2023-09-12T06:26:44;6.40;;;4.73;;
28958;SDS011;16066;0.000;0.000;2023-09-12T06:29:10;9.63;;;5.20;;
28958;SDS011;16066;0.000;0.000;2023-09-12T06:31:35;6.00;;;5.00;;
28958;SDS011;16066;0.000;0.000;2023-09-12T06:34:01;6.07;;;5.43;;
28958;SDS011;16066;0.000;0.000;2023-09-12T06:36:27;7.20;;;5.57;;
28958;SDS011;16066;0.000;0.000;2023-09-12T06:38:56;6.57;;;5.30;;
28958;SDS011;16066;0.000;0.000;2023-09-12T06:41:22;10.17;;;5.27;;
28958;SDS011;16066;0.000;0.000;2023-09-12T06:43:48;10.83;;;5.00;;
28958;SDS011;16066;0.000;0.000;2023-09-12T06:46:13;5.53;;;4.83;;
28958;SDS011;16066;0.000;0.000;2023-09-12T06:48:39;7.23;;;4.97;;
28958;SDS011;16066;0.000;0.000;2023-09-12T06:51:05;19.43;;;5.70;;
28958;SDS011;16066;0.000;0.000;2023-09-12T06:53:34;11.93;;;5.10;;
28958;SDS011;16066;0.000;0.000;2023-09-12T06:55:59;15.23;;;5.40;;
28958;SDS011;16066;0.000;0.000;2023-09-12T06:58:25;7.50;;;5.10;;
28958;SDS011;16066;0.000;0.000;2023-09-12T07:00:51;4.77;;;4.13;;
28958;SDS011;16066;0.000;0.000;2023-09-12T07:03:16;10.00;;;4.23;;
28958;SDS011;16066;0.000;0.000;2023-09-12T07:05:42;7.77;;;4.40;;
28958;SDS011;16066;0.000;0.000;2023-09-12T07:08:08;4.63;;;4.23;;
28958;SDS011;16066;0.000;0.000;2023-09-12T07:10:34;9.13;;;4.40;;
28958;SDS011;16066;0.000;0.000;2023-09-12T07:13:00;7.20;;;4.30;;
28958;SDS011;16066;0.000;0.000;2023-09-12T07:15:26;17.90;;;4.47;;
28958;SDS011;16066;0.000;0.000;2023-09-12T07:17:52;5.73;;;4.03;;
28958;SDS011;16066;0.000;0.000;2023-09-12T07:20:17;7.23;;;4.40;;
28958;SDS011;16066;0.000;0.000;2023-09-12T07:22:45;4.97;;;4.20;;
28958;SDS011;16066;0.000;0.000;2023-09-12T07:25:11;4.37;;;3.97;;
28958;SDS011;16066;0.000;0.000;2023-09-12T07:27:40;6.20;;;5.37;;
28958;SDS011;16066;0.000;0.000;2023-09-12T07:30:06;7.83;;;4.60;;
28958;SDS011;16066;0.000;0.000;2023-09-12T07:32:32;6.90;;;4.63;;
28958;SDS011;16066;0.000;0.000;2023-09-12T07:34:58;7.67;;;5.77;;
28958;SDS011;16066;0.000;0.000;2023-09-12T07:37:24;9.40;;;5.20;;
28958;SDS011;16066;0.000;0.000;2023-09-12T07:39:49;5.27;;;4.07;;
28958;SDS011;16066;0.000;0.000;2023-09-12T07:42:15;4.90;;;4.40;;
28958;SDS011;16066;0.000;0.000;2023-09-12T07:44:40;6.00;;;4.83;;
28958;SDS011;16066;0.000;0.000;2023-09-12T07:47:06;5.07;;;4.57;;
28958;SDS011;16066;0.000;0.000;2023-09-12T07:49:32;5.10;;;4.50;;
28958;SDS011;16066;0.000;0.000;2023-09-12T07:51:58;6.43;;;4.20;;
28958;SDS011;16066;0.000;0.000;2023-09-12T07:54:23;5.50;;;4.50;;
28958;SDS011;16066;0.000;0.000;2023-09-12T07:56:49;5.10;;;4.23;;
28958;SDS011;16066;0.000;0.000;2023-09-12T07:59:15;7.47;;;4.57;;
28958;SDS011;16066;0.000;0.000;2023-09-12T08:01:40;6.13;;;4.07;;
28958;SDS011;16066;0.000;0.000;2023-09-12T08:04:06;5.13;;;4.27;;
28958;SDS011;16066;0.000;0.000;2023-09-12T08:06:32;5.77;;;4.97;;
28958;SDS011;16066;0.000;0.000;2023-09-12T08:08:57;5.17;;;4.30;;
28958;SDS011;16066;0.000;0.000;2023-09-12T08:11:23;5.87;;;4.30;;
28958;SDS011;16066;0.000;0.000;2023-09-12T08:13:49;5.03;;;4.53;;
28958;SDS011;16066;0.000;0.000;2023-09-12T08:16:15;6.03;;;4.20;;
28958;SDS011;16066;0.000;0.000;2023-09-12T08:18:40;6.07;;;4.90;;
28958;SDS011;16066;0.000;0.000;2023-09-12T08:21:06;6.50;;;4.87;;
28958;SDS011;16066;0.000;0.000;2023-09-12T08:23:32;9.13;;;4.63;;
28958;SDS011;16066;0.000;0.000;2023-09-12T08:25:57;7.13;;;4.97;;
28958;SDS011;16066;0.000;0.000;2023-09-12T08:28:23;6.30;;;4.97;;
28958;SDS011;16066;0.000;0.000;2023-09-12T08:30:48;5.40;;;4.17;;
28958;SDS011;16066;0.000;0.000;2023-09-12T08:33:14;5.03;;;4.40;;
28958;SDS011;16066;0.000;0.000;2023-09-12T08:35:40;6.50;;;4.00;;
28958;SDS011;16066;0.000;0.000;2023-09-12T08:38:06;5.20;;;4.43;;
28958;SDS011;16066;0.000;0.000;2023-09-12T08:40:35;6.30;;;5.10;;
28958;SDS011;16066;0.000;0.000;2023-09-12T08:43:00;6.07;;;4.80;;
28958;SDS011;16066;0.000;0.000;2023-09-12T08:45:28;5.37;;;4.30;;
28958;SDS011;16066;0.000;0.000;2023-09-12T08:47:55;7.67;;;4.03;;
28958;SDS011;16066;0.000;0.000;2023-09-12T08:50:22;5.33;;;3.80;;
28958;SDS011;16066;0.000;0.000;2023-09-12T08:52:51;4.00;;;3.60;;
28958;SDS011;16066;0.000;0.000;2023-09-12T08:55:17;5.13;;;4.43;;
28958;SDS011;16066;0.000;0.000;2023-09-12T08:57:43;5.13;;;3.80;;
28958;SDS011;16066;0.000;0.000;2023-09-12T09:00:12;6.17;;;4.23;;
28958;SDS011;16066;0.000;0.000;2023-09-12T09:02:38;4.53;;;3.77;;
28958;SDS011;16066;0.000;0.000;2023-09-12T09:05:05;5.40;;;3.70;;
28958;SDS011;16066;0.000;0.000;2023-09-12T09:07:36;10.57;;;4.00;;
28958;SDS011;16066;0.000;0.000;2023-09-12T09:10:03;4.30;;;3.73;;
28958;SDS011;16066;0.000;0.000;2023-09-12T09:12:30;4.70;;;3.47;;
28958;SDS011;16066;0.000;0.000;2023-09-12T09:14:56;6.03;;;3.27;;
28958;SDS011;16066;0.000;0.000;2023-09-12T09:17:22;3.60;;;3.20;;
28958;SDS011;16066;0.000;0.000;2023-09-12T09:19:48;3.80;;;2.80;;
28958;SDS011;16066;0.000;0.000;2023-09-12T09:22:14;6.40;;;3.37;;
28958;SDS011;16066;0.000;0.000;2023-09-12T09:24:39;6.10;;;4.43;;
28958;SDS011;16066;0.000;0.000;2023-09-12T09:27:05;5.30;;;3.60;;
28958;SDS011;16066;0.000;0.000;2023-09-12T09:29:30;5.40;;;3.53;;
28958;SDS011;16066;0.000;0.000;2023-09-12T09:31:59;7.70;;;4.63;;
28958;SDS011;16066;0.000;0.000;2023-09-12T09:34:26;8.67;;;4.30;;
28958;SDS011;16066;0.000;0.000;2023-09-12T09:36:55;4.90;;;4.20;;
28958;SDS011;16066;0.000;0.000;2023-09-12T09:39:25;7.50;;;4.10;;
28958;SDS011;16066;0.000;0.000;2023-09-12T09:41:54;7.27;;;4.13;;
28958;SDS011;16066;0.000;0.000;2023-09-12T09:44:22;7.30;;;4.20;;
28958;SDS011;16066;0.000;0.000;2023-09-12T09:46:55;10.13;;;3.90;;
28958;SDS011;16066;0.000;0.000;2023-09-12T09:49:27;6.70;;;4.77;;
28958;SDS011;16066;0.000;0.000;2023-09-12T09:51:55;6.40;;;4.67;;
28958;SDS011;16066;0.000;0.000;2023-09-12T09:54:23;7.10;;;3.77;;
28958;SDS011;16066;0.000;0.000;2023-09-12T09:56:53;5.27;;;4.67;;
28958;SDS011;16066;0.000;0.000;2023-09-12T09:59:22;6.03;;;4.20;;
28958;SDS011;16066;0.000;0.000;2023-09-12T10:01:56;7.23;;;4.27;;
28958;SDS011;16066;0.000;0.000;2023-09-12T10:04:23;7.60;;;3.70;;
28958;SDS011;16066;0.000;0.000;2023-09-12T10:06:51;4.90;;;4.20;;
28958;SDS011;16066;0.000;0.000;2023-09-12T10:09:20;5.70;;;4.20;;
28958;SDS011;16066;0.000;0.000;2023-09-12T10:11:51;5.80;;;4.27;;
28958;SDS011;16066;0.000;0.000;2023-09-12T10:14:18;4.30;;;3.73;;
28958;SDS011;16066;0.000;0.000;2023-09-12T10:16:45;7.40;;;4.47;;
28958;SDS011;16066;0.000;0.000;2023-09-12T10:19:25;4.57;;;3.80;;
28958;SDS011;16066;0.000;0.000;2023-09-12T10:24:23;9.60;;;4.50;;
28958;SDS011;16066;0.000;0.000;2023-09-12T10:26:51;5.30;;;3.03;;
28958;SDS011;16066;0.000;0.000;2023-09-12T10:29:17;5.97;;;3.90;;
28958;SDS011;16066;0.000;0.000;2023-09-12T10:31:43;4.83;;;4.00;;
28958;SDS011;16066;0.000;0.000;2023-09-12T10:34:10;5.47;;;4.17;;
28958;SDS011;16066;0.000;0.000;2023-09-12T10:36:38;6.33;;;4.00;;
28958;SDS011;16066;0.000;0.000;2023-09-12T10:39:04;6.70;;;4.10;;
28958;SDS011;16066;0.000;0.000;2023-09-12T10:41:32;6.17;;;4.30;;
28958;SDS011;16066;0.000;0.000;2023-09-12T10:44:01;4.20;;;3.20;;
28958;SDS011;16066;0.000;0.000;2023-09-12T10:46:34;5.70;;;4.00;;
28958;SDS011;16066;0.000;0.000;2023-09-12T10:49:02;6.20;;;4.50;;
28958;SDS011;16066;0.000;0.000;2023-09-12T10:51:31;3.93;;;3.57;;
28958;SDS011;16066;0.000;0.000;2023-09-12T10:53:56;6.90;;;4.40;;
28958;SDS011;16066;0.000;0.000;2023-09-12T10:56:22;4.60;;;3.90;;
28958;SDS011;16066;0.000;0.000;2023-09-12T11:01:29;7.50;;;3.87;;
28958;SDS011;16066;0.000;0.000;2023-09-12T11:03:56;5.87;;;4.00;;
28958;SDS011;16066;0.000;0.000;2023-09-12T11:06:30;5.60;;;3.97;;
28958;SDS011;16066;0.000;0.000;2023-09-12T11:12:04;4.90;;;3.80;;
28958;SDS011;16066;0.000;0.000;2023-09-12T11:14:31;6.57;;;4.97;;
28958;SDS011;16066;0.000;0.000;2023-09-12T11:19:42;5.60;;;3.60;;
28958;SDS011;16066;0.000;0.000;2023-09-12T11:22:26;4.37;;;3.90;;
28958;SDS011;16066;0.000;0.000;2023-09-12T11:25:02;3.90;;;3.30;;
28958;SDS011;16066;0.000;0.000;2023-09-12T11:27:43;4.30;;;3.70;;
28958;SDS011;16066;0.000;0.000;2023-09-12T11:30:11;8.43;;;4.10;;
28958;SDS011;16066;0.000;0.000;2023-09-12T11:32:37;3.73;;;2.90;;
28958;SDS011;16066;0.000;0.000;2023-09-12T11:35:06;5.37;;;4.00;;
28958;SDS011;16066;0.000;0.000;2023-09-12T11:37:32;5.57;;;4.37;;
28958;SDS011;16066;0.000;0.000;2023-09-12T11:40:00;9.17;;;4.67;;
28958;SDS011;16066;0.000;0.000;2023-09-12T11:42:26;9.70;;;4.90;;
28958;SDS011;16066;0.000;0.000;2023-09-12T11:44:52;7.80;;;4.60;;
28958;SDS011;16066;0.000;0.000;2023-09-12T11:47:18;5.37;;;4.20;;
28958;SDS011;16066;0.000;0.000;2023-09-12T11:49:45;8.93;;;4.43;;
28958;SDS011;16066;0.000;0.000;2023-09-12T11:52:11;9.20;;;4.40;;
28958;SDS011;16066;0.000;0.000;2023-09-12T11:54:39;6.77;;;4.23;;
28958;SDS011;16066;0.000;0.000;2023-09-12T11:57:08;4.17;;;3.77;;
28958;SDS011;16066;0.000;0.000;2023-09-12T11:59:42;6.23;;;4.80;;
28958;SDS011;16066;0.000;0.000;2023-09-12T12:02:16;4.90;;;4.30;;
28958;SDS011;16066;0.000;0.000;2023-09-12T12:04:42;10.60;;;4.33;;
28958;SDS011;16066;0.000;0.000;2023-09-12T12:07:08;6.00;;;4.00;;
28958;SDS011;16066;0.000;0.000;2023-09-12T12:09:35;5.33;;;3.93;;
28958;SDS011;16066;0.000;0.000;2023-09-12T12:12:10;5.10;;;4.07;;
28958;SDS011;16066;0.000;0.000;2023-09-12T12:14:38;5.13;;;4.00;;
28958;SDS011;16066;0.000;0.000;2023-09-12T12:17:08;8.00;;;4.87;;
28958;SDS011;16066;0.000;0.000;2023-09-12T12:19:34;4.77;;;4.27;;
28958;SDS011;16066;0.000;0.000;2023-09-12T12:22:01;7.03;;;4.43;;
28958;SDS011;16066;0.000;0.000;2023-09-12T12:24:35;4.80;;;4.30;;
28958;SDS011;16066;0.000;0.000;2023-09-12T12:27:03;4.40;;;3.97;;
28958;SDS011;16066;0.000;0.000;2023-09-12T12:29:28;7.63;;;4.37;;
28958;SDS011;16066;0.000;0.000;2023-09-12T12:31:59;5.40;;;4.00;;
28958;SDS011;16066;0.000;0.000;2023-09-12T12:34:26;7.17;;;4.30;;
28958;SDS011;16066;0.000;0.000;2023-09-12T12:36:53;4.63;;;4.20;;
28958;SDS011;16066;0.000;0.000;2023-09-12T12:39:20;4.63;;;4.13;;
28958;SDS011;16066;0.000;0.000;2023-09-12T12:41:46;5.77;;;4.30;;
28958;SDS011;16066;0.000;0.000;2023-09-12T12:44:11;5.20;;;4.67;;
28958;SDS011;16066;0.000;0.000;2023-09-12T12:46:51;3.63;;;3.33;;
28958;SDS011;16066;0.000;0.000;2023-09-12T12:49:18;5.20;;;4.03;;
28958;SDS011;16066;0.000;0.000;2023-09-12T12:51:44;4.67;;;4.07;;
28958;SDS011;16066;0.000;0.000;2023-09-12T12:54:11;5.40;;;4.00;;
28958;SDS011;16066;0.000;0.000;2023-09-12T12:56:36;6.20;;;4.30;;
28958;SDS011;16066;0.000;0.000;2023-09-12T12:59:03;7.07;;;4.60;;
28958;SDS011;16066;0.000;0.000;2023-09-12T13:01:34;4.93;;;3.73;;
28958;SDS011;16066;0.000;0.000;2023-09-12T13:04:01;5.47;;;4.53;;
28958;SDS011;16066;0.000;0.000;2023-09-12T13:06:27;3.97;;;3.60;;
28958;SDS011;16066;0.000;0.000;2023-09-12T13:08:54;5.87;;;4.07;;
28958;SDS011;16066;0.000;0.000;2023-09-12T13:11:22;3.93;;;3.63;;
28958;SDS011;16066;0.000;0.000;2023-09-12T13:13:48;4.70;;;3.90;;
28958;SDS011;16066;0.000;0.000;2023-09-12T13:16:14;4.70;;;4.00;;
28958;SDS011;16066;0.000;0.000;2023-09-12T13:18:40;4.70;;;3.60;;
28958;SDS011;16066;0.000;0.000;2023-09-12T13:21:06;7.60;;;3.60;;
28958;SDS011;16066;0.000;0.000;2023-09-12T13:23:36;4.70;;;3.90;;
28958;SDS011;16066;0.000;0.000;2023-09-12T13:26:02;6.40;;;3.83;;
28958;SDS011;16066;0.000;0.000;2023-09-12T13:28:28;7.40;;;3.83;;
28958;SDS011;16066;0.000;0.000;2023-09-12T13:30:54;5.63;;;4.80;;
28958;SDS011;16066;0.000;0.000;2023-09-12T13:33:20;6.60;;;4.57;;
28958;SDS011;16066;0.000;0.000;2023-09-12T13:35:46;5.93;;;3.73;;
28958;SDS011;16066;0.000;0.000;2023-09-12T13:38:13;4.80;;;3.77;;
28958;SDS011;16066;0.000;0.000;2023-09-12T13:40:39;6.70;;;4.50;;
28958;SDS011;16066;0.000;0.000;2023-09-12T13:43:05;8.20;;;4.07;;
28958;SDS011;16066;0.000;0.000;2023-09-12T13:45:31;5.40;;;3.83;;
28958;SDS011;16066;0.000;0.000;2023-09-12T13:47:57;5.20;;;3.87;;
28958;SDS011;16066;0.000;0.000;2023-09-12T13:50:24;8.50;;;4.00;;
28958;SDS011;16066;0.000;0.000;2023-09-12T13:52:50;8.40;;;3.97;;
28958;SDS011;16066;0.000;0.000;2023-09-12T13:55:15;7.23;;;3.90;;
28958;SDS011;16066;0.000;0.000;2023-09-12T13:57:41;13.00;;;4.13;;
28958;SDS011;16066;0.000;0.000;2023-09-12T14:00:07;5.00;;;4.30;;
28958;SDS011;16066;0.000;0.000;2023-09-12T14:02:33;4.40;;;3.93;;
28958;SDS011;16066;0.000;0.000;2023-09-12T14:04:59;7.33;;;4.50;;
28958;SDS011;16066;0.000;0.000;2023-09-12T14:07:24;5.13;;;4.20;;
28958;SDS011;16066;0.000;0.000;2023-09-12T14:09:50;4.93;;;4.40;;
28958;SDS011;16066;0.000;0.000;2023-09-12T14:12:17;5.07;;;4.50;;
28958;SDS011;16066;0.000;0.000;2023-09-12T14:14:42;4.50;;;4.10;;
28958;SDS011;16066;0.000;0.000;2023-09-12T14:17:09;5.33;;;4.17;;
28958;SDS011;16066;0.000;0.000;2023-09-12T14:19:34;8.13;;;4.07;;
28958;SDS011;16066;0.000;0.000;2023-09-12T14:22:00;6.60;;;4.50;;
28958;SDS011;16066;0.000;0.000;2023-09-12T14:24:26;7.33;;;4.70;;
28958;SDS011;16066;0.000;0.000;2023-09-12T14:26:51;5.40;;;4.60;;
28958;SDS011;16066;0.000;0.000;2023-09-12T14:29:17;6.57;;;5.43;;
28958;SDS011;16066;0.000;0.000;2023-09-12T14:31:43;5.90;;;4.37;;
28958;SDS011;16066;0.000;0.000;2023-09-12T14:34:15;5.80;;;4.50;;
28958;SDS011;16066;0.000;0.000;2023-09-12T14:36:43;4.80;;;4.20;;
28958;SDS011;16066;0.000;0.000;2023-09-12T14:39:11;5.63;;;3.67;;
28958;SDS011;16066;0.000;0.000;2023-09-12T14:41:36;4.63;;;4.20;;
28958;SDS011;16066;0.000;0.000;2023-09-12T14:44:02;4.40;;;3.43;;
28958;SDS011;16066;0.000;0.000;2023-09-12T14:46:28;8.37;;;4.10;;
28958;SDS011;16066;0.000;0.000;2023-09-12T14:48:53;5.33;;;4.07;;
28958;SDS011;16066;0.000;0.000;2023-09-12T14:51:19;4.60;;;4.20;;
28958;SDS011;16066;0.000;0.000;2023-09-12T14:53:44;4.30;;;3.80;;
28958;SDS011;16066;0.000;0.000;2023-09-12T14:56:11;5.67;;;4.07;;
28958;SDS011;16066;0.000;0.000;2023-09-12T14:58:36;4.57;;;4.13;;
28958;SDS011;16066;0.000;0.000;2023-09-12T15:01:02;6.20;;;4.00;;
28958;SDS011;16066;0.000;0.000;2023-09-12T15:03:28;6.07;;;4.30;;
28958;SDS011;16066;0.000;0.000;2023-09-12T15:05:55;7.07;;;4.40;;
28958;SDS011;16066;0.000;0.000;2023-09-12T15:08:20;4.80;;;3.60;;
28958;SDS011;16066;0.000;0.000;2023-09-12T15:10:46;4.20;;;3.80;;
28958;SDS011;16066;0.000;0.000;2023-09-12T15:13:11;5.80;;;4.20;;
28958;SDS011;16066;0.000;0.000;2023-09-12T15:15:39;4.87;;;3.87;;
28958;SDS011;16066;0.000;0.000;2023-09-12T15:18:04;4.93;;;4.03;;
28958;SDS011;16066;0.000;0.000;2023-09-12T15:20:31;5.37;;;4.00;;
28958;SDS011;16066;0.000;0.000;2023-09-12T15:22:57;5.90;;;4.20;;
28958;SDS011;16066;0.000;0.000;2023-09-12T15:25:22;8.03;;;4.20;;
28958;SDS011;16066;0.000;0.000;2023-09-12T15:27:48;5.80;;;4.00;;
28958;SDS011;16066;0.000;0.000;2023-09-12T15:30:14;4.70;;;3.37;;
28958;SDS011;16066;0.000;0.000;2023-09-12T15:32:39;6.57;;;4.70;;
28958;SDS011;16066;0.000;0.000;2023-09-12T15:35:05;5.73;;;4.37;;
28958;SDS011;16066;0.000;0.000;2023-09-12T15:37:32;9.50;;;4.80;;
28958;SDS011;16066;0.000;0.000;2023-09-12T15:39:57;8.03;;;5.77;;
28958;SDS011;16066;0.000;0.000;2023-09-12T15:42:23;5.17;;;4.60;;
28958;SDS011;16066;0.000;0.000;2023-09-12T15:44:48;8.43;;;5.07;;
28958;SDS011;16066;0.000;0.000;2023-09-12T15:47:14;5.47;;;4.47;;
28958;SDS011;16066;0.000;0.000;2023-09-12T15:49:39;5.53;;;5.03;;
28958;SDS011;16066;0.000;0.000;2023-09-12T15:52:05;7.00;;;4.07;;
28958;SDS011;16066;0.000;0.000;2023-09-12T15:54:32;7.60;;;4.20;;
28958;SDS011;16066;0.000;0.000;2023-09-12T15:56:57;6.00;;;3.93;;
28958;SDS011;16066;0.000;0.000;2023-09-12T15:59:23;5.80;;;4.20;;
28958;SDS011;16066;0.000;0.000;2023-09-12T16:01:50;4.20;;;3.83;;
28958;SDS011;16066;0.000;0.000;2023-09-12T16:04:15;5.03;;;4.00;;
28958;SDS011;16066;0.000;0.000;2023-09-12T16:06:41;6.50;;;4.20;;
28958;SDS011;16066;0.000;0.000;2023-09-12T16:09:07;6.03;;;3.93;;
28958;SDS011;16066;0.000;0.000;2023-09-12T16:11:34;4.50;;;3.87;;
28958;SDS011;16066;0.000;0.000;2023-09-12T16:13:59;8.73;;;3.90;;
28958;SDS011;16066;0.000;0.000;2023-09-12T16:16:26;4.60;;;3.77;;
28958;SDS011;16066;0.000;0.000;2023-09-12T16:18:51;4.27;;;3.87;;
28958;SDS011;16066;0.000;0.000;2023-09-12T16:21:17;4.47;;;3.93;;
28958;SDS011;16066;0.000;0.000;2023-09-12T16:23:43;4.53;;;4.07;;
28958;SDS011;16066;0.000;0.000;2023-09-12T16:26:09;4.40;;;3.87;;
28958;SDS011;16066;0.000;0.000;2023-09-12T16:28:34;6.87;;;3.50;;
28958;SDS011;16066;0.000;0.000;2023-09-12T16:31:00;5.80;;;4.00;;
28958;SDS011;16066;0.000;0.000;2023-09-12T16:33:26;5.73;;;4.00;;
28958;SDS011;16066;0.000;0.000;2023-09-12T16:35:52;4.90;;;3.60;;
28958;SDS011;16066;0.000;0.000;2023-09-12T16:38:19;4.80;;;4.20;;
28958;SDS011;16066;0.000;0.000;2023-09-12T16:40:47;4.83;;;3.70;;
28958;SDS011;16066;0.000;0.000;2023-09-12T16:43:13;4.67;;;4.07;;
28958;SDS011;16066;0.000;0.000;2023-09-12T16:45:38;6.60;;;3.87;;
28958;SDS011;16066;0.000;0.000;2023-09-12T16:48:04;6.00;;;4.23;;
28958;SDS011;16066;0.000;0.000;2023-09-12T16:50:31;6.10;;;4.40;;
28958;SDS011;16066;0.000;0.000;2023-09-12T16:52:56;5.00;;;4.17;;
28958;SDS011;16066;0.000;0.000;2023-09-12T16:55:22;6.00;;;4.43;;
28958;SDS011;16066;0.000;0.000;2023-09-12T16:57:50;5.70;;;4.00;;
28958;SDS011;16066;0.000;0.000;2023-09-12T17:00:16;10.67;;;4.67;;
28958;SDS011;16066;0.000;0.000;2023-09-12T17:02:42;4.40;;;4.00;;
28958;SDS011;16066;0.000;0.000;2023-09-12T17:05:09;5.20;;;4.27;;
28958;SDS011;16066;0.000;0.000;2023-09-12T17:07:34;5.50;;;4.33;;
28958;SDS011;16066;0.000;0.000;2023-09-12T17:10:00;4.47;;;3.50;;
28958;SDS011;16066;0.000;0.000;2023-09-12T17:12:25;4.53;;;4.13;;
28958;SDS011;16066;0.000;0.000;2023-09-12T17:14:51;7.97;;;4.33;;
28958;SDS011;16066;0.000;0.000;2023-09-12T17:17:17;5.90;;;4.63;;
28958;SDS011;16066;0.000;0.000;2023-09-12T17:19:42;13.13;;;5.27;;
28958;SDS011;16066;0.000;0.000;2023-09-12T17:22:08;8.20;;;4.70;;
28958;SDS011;16066;0.000;0.000;2023-09-12T17:24:34;7.37;;;5.77;;
28958;SDS011;16066;0.000;0.000;2023-09-12T17:27:00;5.70;;;5.03;;
28958;SDS011;16066;0.000;0.000;2023-09-12T17:29:25;15.70;;;4.60;;
28958;SDS011;16066;0.000;0.000;2023-09-12T17:31:51;6.40;;;5.63;;
28958;SDS011;16066;0.000;0.000;2023-09-12T17:34:17;9.00;;;6.20;;
28958;SDS011;16066;0.000;0.000;2023-09-12T17:36:43;7.43;;;6.10;;
28958;SDS011;16066;0.000;0.000;2023-09-12T17:39:10;8.80;;;5.80;;
28958;SDS011;16066;0.000;0.000;2023-09-12T17:41:36;8.00;;;6.00;;
28958;SDS011;16066;0.000;0.000;2023-09-12T17:44:02;6.40;;;5.80;;
28958;SDS011;16066;0.000;0.000;2023-09-12T17:46:30;7.30;;;5.57;;
28958;SDS011;16066;0.000;0.000;2023-09-12T17:48:56;6.97;;;6.03;;
28958;SDS011;16066;0.000;0.000;2023-09-12T17:51:21;6.57;;;5.90;;
28958;SDS011;16066;0.000;0.000;2023-09-12T17:53:47;8.40;;;5.80;;
28958;SDS011;16066;0.000;0.000;2023-09-12T17:56:12;6.63;;;6.00;;
28958;SDS011;16066;0.000;0.000;2023-09-12T17:58:38;7.63;;;5.93;;
28958;SDS011;16066;0.000;0.000;2023-09-12T18:01:03;7.27;;;5.77;;
28958;SDS011;16066;0.000;0.000;2023-09-12T18:03:29;8.83;;;5.37;;
28958;SDS011;16066;0.000;0.000;2023-09-12T18:05:55;8.40;;;5.60;;
28958;SDS011;16066;0.000;0.000;2023-09-12T18:08:20;8.50;;;5.70;;
28958;SDS011;16066;0.000;0.000;2023-09-12T18:10:46;9.00;;;6.00;;
28958;SDS011;16066;0.000;0.000;2023-09-12T18:13:12;6.03;;;4.97;;
28958;SDS011;16066;0.000;0.000;2023-09-12T18:15:38;7.97;;;5.70;;
28958;SDS011;16066;0.000;0.000;2023-09-12T18:18:03;7.90;;;6.10;;
28958;SDS011;16066;0.000;0.000;2023-09-12T18:20:29;8.13;;;6.20;;
28958;SDS011;16066;0.000;0.000;2023-09-12T18:22:56;7.83;;;7.00;;
28958;SDS011;16066;0.000;0.000;2023-09-12T18:25:24;9.40;;;6.67;;
28958;SDS011;16066;0.000;0.000;2023-09-12T18:27:49;7.97;;;6.77;;
28958;SDS011;16066;0.000;0.000;2023-09-12T18:30:15;8.03;;;6.73;;
28958;SDS011;16066;0.000;0.000;2023-09-12T18:32:40;7.90;;;6.80;;
28958;SDS011;16066;0.000;0.000;2023-09-12T18:35:06;9.83;;;7.07;;
28958;SDS011;16066;0.000;0.000;2023-09-12T18:37:32;7.90;;;7.10;;
28958;SDS011;16066;0.000;0.000;2023-09-12T18:39:57;7.53;;;6.73;;
28958;SDS011;16066;0.000;0.000;2023-09-12T18:42:23;9.50;;;7.00;;
28958;SDS011;16066;0.000;0.000;2023-09-12T18:44:48;10.03;;;7.03;;
28958;SDS011;16066;0.000;0.000;2023-09-12T18:47:14;7.97;;;6.60;;
28958;SDS011;16066;0.000;0.000;2023-09-12T18:49:40;6.53;;;5.60;;
28958;SDS011;16066;0.000;0.000;2023-09-12T18:52:05;9.30;;;6.27;;
28958;SDS011;16066;0.000;0.000;2023-09-12T18:54:31;8.83;;;6.70;;
28958;SDS011;16066;0.000;0.000;2023-09-12T18:56:58;13.77;;;6.20;;
28958;SDS011;16066;0.000;0.000;2023-09-12T18:59:25;7.13;;;5.50;;
28958;SDS011;16066;0.000;0.000;2023-09-12T19:01:50;9.40;;;6.87;;
28958;SDS011;16066;0.000;0.000;2023-09-12T19:04:25;9.03;;;6.47;;
28958;SDS011;16066;0.000;0.000;2023-09-12T19:06:54;9.33;;;6.80;;
28958;SDS011;16066;0.000;0.000;2023-09-12T19:09:19;8.43;;;6.43;;
28958;SDS011;16066;0.000;0.000;2023-09-12T19:11:45;5.60;;;5.10;;
28958;SDS011;16066;0.000;0.000;2023-09-12T19:14:12;6.87;;;6.10;;
28958;SDS011;16066;0.000;0.000;2023-09-12T19:16:39;7.67;;;6.60;;
28958;SDS011;16066;0.000;0.000;2023-09-12T19:19:06;9.77;;;6.20;;
28958;SDS011;16066;0.000;0.000;2023-09-12T19:21:31;7.67;;;5.80;;
28958;SDS011;16066;0.000;0.000;2023-09-12T19:23:58;8.80;;;5.67;;
28958;SDS011;16066;0.000;0.000;2023-09-12T19:26:24;8.10;;;5.73;;
28958;SDS011;16066;0.000;0.000;2023-09-12T19:28:49;6.20;;;5.60;;
28958;SDS011;16066;0.000;0.000;2023-09-12T19:31:15;11.80;;;6.60;;
28958;SDS011;16066;0.000;0.000;2023-09-12T19:33:41;8.03;;;6.93;;
28958;SDS011;16066;0.000;0.000;2023-09-12T19:36:06;9.33;;;6.67;;
28958;SDS011;16066;0.000;0.000;2023-09-12T19:38:32;7.23;;;6.50;;
28958;SDS011;16066;0.000;0.000;2023-09-12T19:40:58;7.13;;;6.43;;
28958;SDS011;16066;0.000;0.000;2023-09-12T19:43:24;8.97;;;6.40;;
28958;SDS011;16066;0.000;0.000;2023-09-12T19:45:50;8.53;;;7.67;;
28958;SDS011;16066;0.000;0.000;2023-09-12T19:48:16;8.40;;;6.80;;
28958;SDS011;16066;0.000;0.000;2023-09-12T19:50:45;9.50;;;7.60;;
28958;SDS011;16066;0.000;0.000;2023-09-12T19:53:11;10.13;;;7.57;;
28958;SDS011;16066;0.000;0.000;2023-09-12T19:55:41;11.40;;;6.80;;
28958;SDS011;16066;0.000;0.000;2023-09-12T19:58:06;7.57;;;6.73;;
28958;SDS011;16066;0.000;0.000;2023-09-12T20:00:32;9.97;;;7.23;;
28958;SDS011;16066;0.000;0.000;2023-09-12T20:02:58;11.30;;;7.80;;
28958;SDS011;16066;0.000;0.000;2023-09-12T20:05:23;8.87;;;7.60;;
28958;SDS011;16066;0.000;0.000;2023-09-12T20:07:49;8.37;;;6.13;;
28958;SDS011;16066;0.000;0.000;2023-09-12T20:10:16;10.23;;;7.03;;
28958;SDS011;16066;0.000;0.000;2023-09-12T20:12:46;13.40;;;7.17;;
28958;SDS011;16066;0.000;0.000;2023-09-12T20:15:11;10.70;;;8.10;;
28958;SDS011;16066;0.000;0.000;2023-09-12T20:17:39;10.53;;;7.70;;
28958;SDS011;16066;0.000;0.000;2023-09-12T20:20:05;9.10;;;6.63;;
28958;SDS011;16066;0.000;0.000;2023-09-12T20:22:32;9.90;;;6.80;;
28958;SDS011;16066;0.000;0.000;2023-09-12T20:24:58;9.27;;;7.63;;
28958;SDS011;16066;0.000;0.000;2023-09-12T20:27:23;11.50;;;7.60;;
28958;SDS011;16066;0.000;0.000;2023-09-12T20:29:49;8.73;;;7.07;;
28958;SDS011;16066;0.000;0.000;2023-09-12T20:32:14;11.03;;;7.53;;
28958;SDS011;16066;0.000;0.000;2023-09-12T20:34:40;8.93;;;7.50;;
28958;SDS011;16066;0.000;0.000;2023-09-12T20:37:05;10.10;;;7.73;;